sensor_id;sensor_type;location;lat;lon;timestamp;pressure;altitude;pressure_sealevel;temperature;humidity
57114;BME280;42994;51.606;9.988;2023-09-18T00:01:03;98806.97;;;17.53;100.00
57114;BME280;42994;51.606;9.988;2023-09-18T00:03:29;98804.38;;;17.58;100.00
57114;BME280;42994;51.606;9.988;2023-09-18T00:05:56;98789.28;;;17.79;100.00
57114;BME280;42994;51.606;9.988;2023-09-18T00:08:22;98770.66;;;17.82;100.00
57114;BME280;42994;51.606;9.988;2023-09-18T00:10:51;98778.09;;;17.75;100.00
57114;BME280;42994;51.606;9.988;2023-09-18T00:13:20;98768.88;;;17.88;100.00
57114;BME280;42994;51.606;9.988;2023-09-18T00:15:46;98762.06;;;17.85;100.00
57114;BME280;42994;51.606;9.988;2023-09-18T00:18:14;98755.28;;;17.71;100.00
57114;BME280;42994;51.606;9.988;2023-09-18T00:20:41;98762.06;;;17.57;100.00
57114;BME280;42994;51.606;9.988;2023-09-18T00:23:08;98763.97;;;17.56;100.00
57114;BME280;42994;51.606;9.988;2023-09-18T00:25:35;98774.47;;;17.53;100.00
57114;BME280;42994;51.606;9.988;2023-09-18T00:28:02;98777.28;;;17.58;100.00
57114;BME280;42994;51.606;9.988;2023-09-18T00:30:31;98757.88;;;17.66;100.00
57114;BME280;42994;51.606;9.988;2023-09-18T00:32:57;98750.66;;;17.55;100.00
57114;BME280;42994;51.606;9.988;2023-09-18T00:35:24;98751.53;;;17.43;100.00
57114;BME280;42994;51.606;9.988;2023-09-18T00:37:51;98748.56;;;17.45;100.00
57114;BME280;42994;51.606;9.988;2023-09-18T00:40:18;98742.66;;;17.48;100.00
57114;BME280;42994;51.606;9.988;2023-09-18T00:42:45;98738.94;;;17.37;100.00
57114;BME280;42994;51.606;9.988;2023-09-18T00:45:12;98744.19;;;17.27;100.00
57114;BME280;42994;51.606;9.988;2023-09-18T00:47:40;98739.25;;;17.24;100.00
57114;BME280;42994;51.606;9.988;2023-09-18T00:50:08;98735.97;;;17.10;100.00
57114;BME280;42994;51.606;9.988;2023-09-18T00:52:38;98737.19;;;17.02;100.00
57114;BME280;42994;51.606;9.988;2023-09-18T00:55:05;98723.69;;;17.19;100.00
57114;BME280;42994;51.606;9.988;2023-09-18T00:57:33;98718.63;;;17.23;100.00
57114;BME280;42994;51.606;9.988;2023-09-18T01:00:02;98697.72;;;17.35;100.00
57114;BME280;42994;51.606;9.988;2023-09-18T01:02:30;98698.75;;;17.17;100.00
57114;BME280;42994;51.606;9.988;2023-09-18T01:04:59;98693.72;;;17.09;100.00
57114;BME280;42994;51.606;9.988;2023-09-18T01:07:25;98693.16;;;17.07;100.00
57114;BME280;42994;51.606;9.988;2023-09-18T01:09:54;98689.03;;;17.04;100.00
57114;BME280;42994;51.606;9.988;2023-09-18T01:12:25;98698.50;;;16.90;100.00
57114;BME280;42994;51.606;9.988;2023-09-18T01:14:57;98704.16;;;16.77;100.00
57114;BME280;42994;51.606;9.988;2023-09-18T01:17:26;98709.97;;;16.68;100.00
57114;BME280;42994;51.606;9.988;2023-09-18T01:19:52;98715.25;;;16.87;100.00
57114;BME280;42994;51.606;9.988;2023-09-18T01:22:20;98695.66;;;16.97;100.00
57114;BME280;42994;51.606;9.988;2023-09-18T01:24:49;98705.25;;;16.76;100.00
57114;BME280;42994;51.606;9.988;2023-09-18T01:27:17;98707.16;;;16.63;100.00
57114;BME280;42994;51.606;9.988;2023-09-18T01:29:44;98712.41;;;16.70;100.00
57114;BME280;42994;51.606;9.988;2023-09-18T01:32:11;98694.50;;;16.93;100.00
57114;BME280;42994;51.606;9.988;2023-09-18T01:34:40;98710.53;;;16.70;100.00
57114;BME280;42994;51.606;9.988;2023-09-18T01:37:10;98700.69;;;16.52;100.00
57114;BME280;42994;51.606;9.988;2023-09-18T01:39:39;98713.88;;;16.49;100.00
57114;BME280;42994;51.606;9.988;2023-09-18T01:42:07;98736.47;;;16.31;100.00
57114;BME280;42994;51.606;9.988;2023-09-18T01:44:36;98706.69;;;16.55;100.00
57114;BME280;42994;51.606;9.988;2023-09-18T01:47:05;98701.63;;;16.58;100.00
57114;BME280;42994;51.606;9.988;2023-09-18T01:49:33;98702.59;;;16.40;100.00
57114;BME280;42994;51.606;9.988;2023-09-18T01:52:00;98710.19;;;16.55;100.00
57114;BME280;42994;51.606;9.988;2023-09-18T01:54:27;98698.44;;;16.61;100.00
57114;BME280;42994;51.606;9.988;2023-09-18T01:56:54;98682.16;;;16.73;100.00
57114;BME280;42994;51.606;9.988;2023-09-18T01:59:23;98682.34;;;16.55;100.00
57114;BME280;42994;51.606;9.988;2023-09-18T02:01:50;98689.63;;;16.54;100.00
57114;BME280;42994;51.606;9.988;2023-09-18T02:04:17;98700.00;;;16.33;100.00
57114;BME280;42994;51.606;9.988;2023-09-18T02:06:45;98697.91;;;16.12;100.00
57114;BME280;42994;51.606;9.988;2023-09-18T02:09:12;98709.31;;;16.38;100.00
57114;BME280;42994;51.606;9.988;2023-09-18T02:11:40;98720.00;;;16.32;100.00
57114;BME280;42994;51.606;9.988;2023-09-18T02:14:07;98704.59;;;16.45;100.00
57114;BME280;42994;51.606;9.988;2023-09-18T02:16:38;98698.81;;;16.53;100.00
57114;BME280;42994;51.606;9.988;2023-09-18T02:19:07;98698.72;;;16.36;100.00
57114;BME280;42994;51.606;9.988;2023-09-18T02:21:34;98712.25;;;16.12;100.00
57114;BME280;42994;51.606;9.988;2023-09-18T02:24:00;98703.06;;;16.37;100.00
57114;BME280;42994;51.606;9.988;2023-09-18T02:26:27;98699.06;;;16.28;100.00
57114;BME280;42994;51.606;9.988;2023-09-18T02:28:55;98706.13;;;16.29;100.00
57114;BME280;42994;51.606;9.988;2023-09-18T02:31:21;98690.09;;;16.51;100.00
57114;BME280;42994;51.606;9.988;2023-09-18T02:33:50;98693.78;;;16.21;100.00
57114;BME280;42994;51.606;9.988;2023-09-18T02:36:16;98700.03;;;16.10;100.00
57114;BME280;42994;51.606;9.988;2023-09-18T02:38:43;98711.19;;;16.25;100.00
57114;BME280;42994;51.606;9.988;2023-09-18T02:41:09;98691.88;;;16.33;100.00
57114;BME280;42994;51.606;9.988;2023-09-18T02:43:36;98686.38;;;16.28;100.00
57114;BME280;42994;51.606;9.988;2023-09-18T02:46:03;98665.63;;;16.46;100.00
57114;BME280;42994;51.606;9.988;2023-09-18T02:48:30;98681.56;;;16.30;100.00
57114;BME280;42994;51.606;9.988;2023-09-18T02:51:02;98667.34;;;16.23;100.00
57114;BME280;42994;51.606;9.988;2023-09-18T02:53:29;98666.53;;;16.23;100.00
57114;BME280;42994;51.606;9.988;2023-09-18T02:55:58;98658.59;;;16.33;100.00
57114;BME280;42994;51.606;9.988;2023-09-18T02:58:25;98665.56;;;16.17;100.00
57114;BME280;42994;51.606;9.988;2023-09-18T03:00:55;98665.09;;;16.32;100.00
57114;BME280;42994;51.606;9.988;2023-09-18T03:03:22;98678.84;;;16.19;100.00
57114;BME280;42994;51.606;9.988;2023-09-18T03:05:49;98668.03;;;16.19;100.00
57114;BME280;42994;51.606;9.988;2023-09-18T03:08:17;98681.09;;;16.22;100.00
57114;BME280;42994;51.606;9.988;2023-09-18T03:10:44;98701.66;;;16.11;100.00
57114;BME280;42994;51.606;9.988;2023-09-18T03:13:14;98689.31;;;16.15;100.00
57114;BME280;42994;51.606;9.988;2023-09-18T03:15:44;98686.97;;;16.19;100.00
57114;BME280;42994;51.606;9.988;2023-09-18T03:18:11;98686.84;;;16.02;100.00
57114;BME280;42994;51.606;9.988;2023-09-18T03:20:39;98694.28;;;16.06;100.00
57114;BME280;42994;51.606;9.988;2023-09-18T03:23:08;98684.03;;;16.32;100.00
57114;BME280;42994;51.606;9.988;2023-09-18T03:25:37;98660.22;;;16.46;100.00
57114;BME280;42994;51.606;9.988;2023-09-18T03:28:04;98643.66;;;16.42;100.00
57114;BME280;42994;51.606;9.988;2023-09-18T03:30:32;98628.09;;;16.49;100.00
57114;BME280;42994;51.606;9.988;2023-09-18T03:32:59;98629.31;;;16.42;100.00
57114;BME280;42994;51.606;9.988;2023-09-18T03:35:28;98611.34;;;16.64;100.00
57114;BME280;42994;51.606;9.988;2023-09-18T03:37:55;98605.09;;;16.76;100.00
57114;BME280;42994;51.606;9.988;2023-09-18T03:40:22;98609.66;;;16.87;100.00
57114;BME280;42994;51.606;9.988;2023-09-18T03:42:50;98596.47;;;16.90;100.00
57114;BME280;42994;51.606;9.988;2023-09-18T03:45:17;98591.28;;;16.89;100.00
57114;BME280;42994;51.606;9.988;2023-09-18T03:47:47;98581.84;;;16.91;100.00
57114;BME280;42994;51.606;9.988;2023-09-18T03:50:15;98575.63;;;16.91;100.00
57114;BME280;42994;51.606;9.988;2023-09-18T03:52:42;98568.66;;;16.95;100.00
57114;BME280;42994;51.606;9.988;2023-09-18T03:55:09;98570.88;;;16.98;100.00
57114;BME280;42994;51.606;9.988;2023-09-18T03:57:36;98563.91;;;17.02;100.00
57114;BME280;42994;51.606;9.988;2023-09-18T04:00:05;98559.63;;;17.06;100.00
57114;BME280;42994;51.606;9.988;2023-09-18T04:02:37;98552.69;;;17.10;100.00
57114;BME280;42994;51.606;9.988;2023-09-18T04:05:04;98550.34;;;17.19;100.00
57114;BME280;42994;51.606;9.988;2023-09-18T04:07:33;98548.06;;;17.28;100.00
57114;BME280;42994;51.606;9.988;2023-09-18T04:10:00;98543.47;;;17.28;100.00
57114;BME280;42994;51.606;9.988;2023-09-18T04:12:27;98540.50;;;17.30;100.00
57114;BME280;42994;51.606;9.988;2023-09-18T04:14:54;98530.72;;;17.46;100.00
57114;BME280;42994;51.606;9.988;2023-09-18T04:17:23;98523.50;;;17.52;100.00
57114;BME280;42994;51.606;9.988;2023-09-18T04:19:50;98508.44;;;17.61;100.00
57114;BME280;42994;51.606;9.988;2023-09-18T04:22:17;98501.97;;;17.62;100.00
57114;BME280;42994;51.606;9.988;2023-09-18T04:24:44;98484.13;;;17.66;100.00
57114;BME280;42994;51.606;9.988;2023-09-18T04:27:10;98473.53;;;17.64;100.00
57114;BME280;42994;51.606;9.988;2023-09-18T04:29:37;98477.13;;;17.70;100.00
57114;BME280;42994;51.606;9.988;2023-09-18T04:32:04;98470.66;;;17.71;100.00
57114;BME280;42994;51.606;9.988;2023-09-18T04:34:33;98456.59;;;17.74;100.00
57114;BME280;42994;51.606;9.988;2023-09-18T04:37:00;98449.53;;;17.73;100.00
57114;BME280;42994;51.606;9.988;2023-09-18T04:39:29;98453.44;;;17.82;100.00
57114;BME280;42994;51.606;9.988;2023-09-18T04:42:01;98451.69;;;17.93;100.00
57114;BME280;42994;51.606;9.988;2023-09-18T04:44:30;98462.06;;;17.96;100.00
57114;BME280;42994;51.606;9.988;2023-09-18T04:46:57;98492.44;;;17.98;100.00
57114;BME280;42994;51.606;9.988;2023-09-18T04:49:25;98503.97;;;17.89;100.00
57114;BME280;42994;51.606;9.988;2023-09-18T04:51:54;98487.75;;;17.94;100.00
57114;BME280;42994;51.606;9.988;2023-09-18T04:54:22;98496.88;;;18.32;100.00
57114;BME280;42994;51.606;9.988;2023-09-18T04:56:48;98478.81;;;18.15;100.00
57114;BME280;42994;51.606;9.988;2023-09-18T04:59:15;98476.16;;;18.20;100.00
57114;BME280;42994;51.606;9.988;2023-09-18T05:01:42;98460.50;;;18.28;100.00
57114;BME280;42994;51.606;9.988;2023-09-18T05:04:09;98447.69;;;18.23;100.00
57114;BME280;42994;51.606;9.988;2023-09-18T05:06:36;98448.91;;;18.10;100.00
57114;BME280;42994;51.606;9.988;2023-09-18T05:09:05;98461.81;;;18.25;100.00
57114;BME280;42994;51.606;9.988;2023-09-18T05:11:32;98454.63;;;18.14;100.00
57114;BME280;42994;51.606;9.988;2023-09-18T05:13:59;98452.81;;;18.19;100.00
57114;BME280;42994;51.606;9.988;2023-09-18T05:16:26;98457.31;;;18.36;100.00
57114;BME280;42994;51.606;9.988;2023-09-18T05:18:53;98446.88;;;18.22;100.00
57114;BME280;42994;51.606;9.988;2023-09-18T05:21:20;98453.47;;;18.32;100.00
57114;BME280;42994;51.606;9.988;2023-09-18T05:23:50;98443.91;;;18.24;100.00
57114;BME280;42994;51.606;9.988;2023-09-18T05:26:18;98430.84;;;18.48;100.00
57114;BME280;42994;51.606;9.988;2023-09-18T05:28:45;98424.72;;;18.63;100.00
57114;BME280;42994;51.606;9.988;2023-09-18T05:31:12;98405.06;;;18.51;100.00
57114;BME280;42994;51.606;9.988;2023-09-18T05:33:40;98400.53;;;18.56;100.00
57114;BME280;42994;51.606;9.988;2023-09-18T05:36:07;98392.38;;;18.56;100.00
57114;BME280;42994;51.606;9.988;2023-09-18T05:38:34;98399.19;;;18.59;100.00
57114;BME280;42994;51.606;9.988;2023-09-18T05:41:00;98396.63;;;18.47;100.00
57114;BME280;42994;51.606;9.988;2023-09-18T05:43:28;98392.94;;;18.58;100.00
57114;BME280;42994;51.606;9.988;2023-09-18T05:45:55;98389.69;;;18.61;100.00
57114;BME280;42994;51.606;9.988;2023-09-18T05:48:22;98382.03;;;18.53;100.00
57114;BME280;42994;51.606;9.988;2023-09-18T05:50:48;98373.09;;;18.90;100.00
57114;BME280;42994;51.606;9.988;2023-09-18T05:53:15;98362.50;;;18.89;100.00
57114;BME280;42994;51.606;9.988;2023-09-18T05:55:41;98353.25;;;18.85;100.00
57114;BME280;42994;51.606;9.988;2023-09-18T05:58:08;98351.03;;;18.81;100.00
57114;BME280;42994;51.606;9.988;2023-09-18T06:00:36;98357.50;;;18.75;100.00
57114;BME280;42994;51.606;9.988;2023-09-18T06:03:03;98348.06;;;18.83;100.00
57114;BME280;42994;51.606;9.988;2023-09-18T06:05:31;98353.81;;;18.87;100.00
57114;BME280;42994;51.606;9.988;2023-09-18T06:07:59;98340.72;;;18.83;100.00
57114;BME280;42994;51.606;9.988;2023-09-18T06:10:25;98337.97;;;18.78;100.00
57114;BME280;42994;51.606;9.988;2023-09-18T06:12:52;98330.66;;;18.79;100.00
57114;BME280;42994;51.606;9.988;2023-09-18T06:15:19;98316.25;;;18.78;100.00
57114;BME280;42994;51.606;9.988;2023-09-18T06:17:48;98312.50;;;18.85;100.00
57114;BME280;42994;51.606;9.988;2023-09-18T06:20:14;98315.75;;;18.81;100.00
57114;BME280;42994;51.606;9.988;2023-09-18T06:22:42;98324.13;;;18.80;100.00
57114;BME280;42994;51.606;9.988;2023-09-18T06:25:09;98317.13;;;18.84;100.00
57114;BME280;42994;51.606;9.988;2023-09-18T06:27:36;98306.56;;;18.88;100.00
57114;BME280;42994;51.606;9.988;2023-09-18T06:30:03;98318.75;;;18.85;100.00
57114;BME280;42994;51.606;9.988;2023-09-18T06:32:30;98315.22;;;18.85;100.00
57114;BME280;42994;51.606;9.988;2023-09-18T06:35:00;98315.25;;;18.90;100.00
57114;BME280;42994;51.606;9.988;2023-09-18T06:37:26;98325.78;;;18.81;100.00
57114;BME280;42994;51.606;9.988;2023-09-18T06:39:53;98324.44;;;18.83;100.00
57114;BME280;42994;51.606;9.988;2023-09-18T06:42:20;98334.28;;;18.90;100.00
57114;BME280;42994;51.606;9.988;2023-09-18T06:44:56;98333.72;;;18.93;100.00
57114;BME280;42994;51.606;9.988;2023-09-18T06:47:22;98317.19;;;18.94;100.00
57114;BME280;42994;51.606;9.988;2023-09-18T06:49:49;98306.31;;;18.94;100.00
57114;BME280;42994;51.606;9.988;2023-09-18T06:52:18;98321.00;;;18.93;100.00
57114;BME280;42994;51.606;9.988;2023-09-18T06:54:44;98326.66;;;18.87;100.00
57114;BME280;42994;51.606;9.988;2023-09-18T06:57:11;98336.19;;;18.89;100.00
57114;BME280;42994;51.606;9.988;2023-09-18T06:59:38;98333.72;;;18.93;100.00
57114;BME280;42994;51.606;9.988;2023-09-18T07:02:04;98342.16;;;18.91;100.00
57114;BME280;42994;51.606;9.988;2023-09-18T07:04:31;98354.44;;;18.99;100.00
57114;BME280;42994;51.606;9.988;2023-09-18T07:06:58;98363.38;;;18.99;100.00
57114;BME280;42994;51.606;9.988;2023-09-18T07:09:26;98372.63;;;19.04;100.00
57114;BME280;42994;51.606;9.988;2023-09-18T07:11:53;98367.25;;;19.09;100.00
57114;BME280;42994;51.606;9.988;2023-09-18T07:14:19;98370.25;;;19.12;100.00
57114;BME280;42994;51.606;9.988;2023-09-18T07:16:46;98370.03;;;19.19;100.00
57114;BME280;42994;51.606;9.988;2023-09-18T07:19:13;98376.25;;;19.19;100.00
57114;BME280;42994;51.606;9.988;2023-09-18T07:21:43;98361.38;;;19.32;100.00
57114;BME280;42994;51.606;9.988;2023-09-18T07:24:10;98374.44;;;19.35;100.00
57114;BME280;42994;51.606;9.988;2023-09-18T07:26:44;98371.50;;;19.47;100.00
57114;BME280;42994;51.606;9.988;2023-09-18T07:29:12;98368.00;;;19.52;100.00
57114;BME280;42994;51.606;9.988;2023-09-18T07:31:39;98389.88;;;19.77;100.00
57114;BME280;42994;51.606;9.988;2023-09-18T07:34:06;98363.75;;;19.82;100.00
57114;BME280;42994;51.606;9.988;2023-09-18T07:36:32;98346.69;;;20.07;100.00
57114;BME280;42994;51.606;9.988;2023-09-18T07:38:59;98345.88;;;20.06;100.00
57114;BME280;42994;51.606;9.988;2023-09-18T07:41:26;98356.47;;;20.08;100.00
57114;BME280;42994;51.606;9.988;2023-09-18T07:43:54;98340.44;;;20.16;100.00
57114;BME280;42994;51.606;9.988;2023-09-18T07:46:22;98337.16;;;20.14;100.00
57114;BME280;42994;51.606;9.988;2023-09-18T07:48:49;98338.25;;;20.08;100.00
57114;BME280;42994;51.606;9.988;2023-09-18T07:51:16;98340.41;;;20.11;100.00
57114;BME280;42994;51.606;9.988;2023-09-18T07:53:42;98343.44;;;20.25;100.00
57114;BME280;42994;51.606;9.988;2023-09-18T07:56:09;98341.00;;;20.39;100.00
57114;BME280;42994;51.606;9.988;2023-09-18T07:58:37;98343.97;;;20.48;100.00
57114;BME280;42994;51.606;9.988;2023-09-18T08:01:06;98343.72;;;20.39;100.00
57114;BME280;42994;51.606;9.988;2023-09-18T08:03:34;98351.34;;;20.32;100.00
57114;BME280;42994;51.606;9.988;2023-09-18T08:06:01;98343.72;;;20.29;100.00
57114;BME280;42994;51.606;9.988;2023-09-18T08:08:30;98342.09;;;20.43;100.00
57114;BME280;42994;51.606;9.988;2023-09-18T08:11:00;98348.06;;;20.45;100.00
57114;BME280;42994;51.606;9.988;2023-09-18T08:13:28;98334.44;;;20.40;100.00
57114;BME280;42994;51.606;9.988;2023-09-18T08:15:55;98329.28;;;20.54;100.00
57114;BME280;42994;51.606;9.988;2023-09-18T08:18:23;98318.13;;;20.55;100.00
57114;BME280;42994;51.606;9.988;2023-09-18T08:20:52;98313.75;;;20.60;100.00
57114;BME280;42994;51.606;9.988;2023-09-18T08:23:19;98306.69;;;20.53;100.00
57114;BME280;42994;51.606;9.988;2023-09-18T08:25:46;98308.34;;;20.65;100.00
57114;BME280;42994;51.606;9.988;2023-09-18T08:28:14;98313.53;;;20.61;100.00
57114;BME280;42994;51.606;9.988;2023-09-18T08:30:41;98329.03;;;20.61;100.00
57114;BME280;42994;51.606;9.988;2023-09-18T08:33:10;98334.47;;;20.61;100.00
57114;BME280;42994;51.606;9.988;2023-09-18T08:35:38;98341.03;;;20.70;100.00
57114;BME280;42994;51.606;9.988;2023-09-18T08:38:05;98343.16;;;20.83;100.00
57114;BME280;42994;51.606;9.988;2023-09-18T08:40:32;98347.75;;;20.98;100.00
57114;BME280;42994;51.606;9.988;2023-09-18T08:43:00;98354.56;;;21.01;100.00
57114;BME280;42994;51.606;9.988;2023-09-18T08:45:35;98343.66;;;21.06;100.00
57114;BME280;42994;51.606;9.988;2023-09-18T08:48:05;98346.94;;;21.03;100.00
57114;BME280;42994;51.606;9.988;2023-09-18T08:50:33;98345.56;;;21.05;100.00
57114;BME280;42994;51.606;9.988;2023-09-18T08:53:01;98353.19;;;21.08;100.00
57114;BME280;42994;51.606;9.988;2023-09-18T08:55:28;98351.81;;;21.16;100.00
57114;BME280;42994;51.606;9.988;2023-09-18T08:57:57;98356.94;;;21.28;100.00
57114;BME280;42994;51.606;9.988;2023-09-18T09:00:25;98352.59;;;21.27;100.00
57114;BME280;42994;51.606;9.988;2023-09-18T09:02:51;98359.66;;;21.33;100.00
57114;BME280;42994;51.606;9.988;2023-09-18T09:05:19;98338.91;;;21.37;100.00
57114;BME280;42994;51.606;9.988;2023-09-18T09:07:46;98343.53;;;21.42;100.00
57114;BME280;42994;51.606;9.988;2023-09-18T09:10:14;98339.19;;;21.46;100.00
57114;BME280;42994;51.606;9.988;2023-09-18T09:12:53;98348.16;;;21.46;100.00
57114;BME280;42994;51.606;9.988;2023-09-18T09:15:21;98342.44;;;21.43;100.00
57114;BME280;42994;51.606;9.988;2023-09-18T09:17:49;98331.81;;;21.41;100.00
57114;BME280;42994;51.606;9.988;2023-09-18T09:20:15;98332.13;;;21.45;100.00
57114;BME280;42994;51.606;9.988;2023-09-18T09:22:44;98335.91;;;21.44;100.00
57114;BME280;42994;51.606;9.988;2023-09-18T09:25:26;98392.91;;;21.50;100.00
57114;BME280;42994;51.606;9.988;2023-09-18T09:27:53;98332.31;;;21.54;100.00
57114;BME280;42994;51.606;9.988;2023-09-18T09:30:22;98332.94;;;21.45;100.00
57114;BME280;42994;51.606;9.988;2023-09-18T09:32:49;98329.31;;;21.55;100.00
57114;BME280;42994;51.606;9.988;2023-09-18T09:35:24;98327.72;;;21.49;100.00
57114;BME280;42994;51.606;9.988;2023-09-18T09:37:53;98323.34;;;21.48;100.00
57114;BME280;42994;51.606;9.988;2023-09-18T09:40:21;98322.81;;;21.41;100.00
57114;BME280;42994;51.606;9.988;2023-09-18T09:42:53;98325.78;;;21.44;100.00
57114;BME280;42994;51.606;9.988;2023-09-18T09:45:26;98322.84;;;21.36;100.00
57114;BME280;42994;51.606;9.988;2023-09-18T09:47:53;98319.53;;;21.44;100.00
57114;BME280;42994;51.606;9.988;2023-09-18T09:50:20;98313.28;;;21.43;100.00
57114;BME280;42994;51.606;9.988;2023-09-18T09:52:48;98311.91;;;21.51;100.00
57114;BME280;42994;51.606;9.988;2023-09-18T09:55:24;98352.19;;;21.64;100.00
57114;BME280;42994;51.606;9.988;2023-09-18T09:57:55;98333.69;;;21.61;100.00
57114;BME280;42994;51.606;9.988;2023-09-18T10:00:29;98335.38;;;21.42;100.00
57114;BME280;42994;51.606;9.988;2023-09-18T10:02:59;98331.53;;;21.43;100.00
57114;BME280;42994;51.606;9.988;2023-09-18T10:05:30;98325.78;;;21.44;100.00
57114;BME280;42994;51.606;9.988;2023-09-18T10:07:59;98328.25;;;21.56;100.00
57114;BME280;42994;51.606;9.988;2023-09-18T10:10:30;98327.13;;;21.57;100.00
57114;BME280;42994;51.606;9.988;2023-09-18T10:13:05;98335.00;;;21.64;100.00
57114;BME280;42994;51.606;9.988;2023-09-18T10:15:34;98342.44;;;21.53;100.00
57114;BME280;42994;51.606;9.988;2023-09-18T10:18:05;98336.44;;;21.51;100.00
57114;BME280;42994;51.606;9.988;2023-09-18T10:20:37;98322.19;;;21.64;100.00
57114;BME280;42994;51.606;9.988;2023-09-18T10:23:14;98335.78;;;21.75;100.00
57114;BME280;42994;51.606;9.988;2023-09-18T10:25:48;98340.63;;;21.83;100.00
57114;BME280;42994;51.606;9.988;2023-09-18T10:28:18;98326.56;;;21.65;100.00
57114;BME280;42994;51.606;9.988;2023-09-18T10:30:47;98331.50;;;21.58;100.00
57114;BME280;42994;51.606;9.988;2023-09-18T10:33:15;98339.72;;;21.48;100.00
57114;BME280;42994;51.606;9.988;2023-09-18T10:35:43;98334.00;;;21.49;100.00
57114;BME280;42994;51.606;9.988;2023-09-18T10:38:12;98329.91;;;21.52;100.00
57114;BME280;42994;51.606;9.988;2023-09-18T10:40:40;98333.16;;;21.54;100.00
57114;BME280;42994;51.606;9.988;2023-09-18T10:43:10;98347.00;;;21.68;100.00
57114;BME280;42994;51.606;9.988;2023-09-18T10:45:40;98348.38;;;21.65;100.00
57114;BME280;42994;51.606;9.988;2023-09-18T10:48:08;98368.56;;;21.59;100.00
57114;BME280;42994;51.606;9.988;2023-09-18T10:50:35;98377.88;;;21.58;100.00
57114;BME280;42994;51.606;9.988;2023-09-18T10:53:02;98370.22;;;21.60;100.00
57114;BME280;42994;51.606;9.988;2023-09-18T10:55:29;98351.13;;;21.60;100.00
57114;BME280;42994;51.606;9.988;2023-09-18T10:57:58;98344.28;;;21.63;100.00
57114;BME280;42994;51.606;9.988;2023-09-18T11:00:26;98352.63;;;21.87;100.00
57114;BME280;42994;51.606;9.988;2023-09-18T11:03:12;98362.44;;;21.88;100.00
57114;BME280;42994;51.606;9.988;2023-09-18T11:05:39;98359.16;;;21.86;100.00
57114;BME280;42994;51.606;9.988;2023-09-18T11:08:25;98362.41;;;21.93;100.00
57114;BME280;42994;51.606;9.988;2023-09-18T11:10:57;98374.47;;;21.87;100.00
57114;BME280;42994;51.606;9.988;2023-09-18T11:13:35;98361.69;;;21.72;100.00
57114;BME280;42994;51.606;9.988;2023-09-18T11:16:12;98369.03;;;21.82;100.00
57114;BME280;42994;51.606;9.988;2023-09-18T11:18:41;98378.41;;;22.10;100.00
57114;BME280;42994;51.606;9.988;2023-09-18T11:21:09;98371.25;;;21.75;100.00
57114;BME280;42994;51.606;9.988;2023-09-18T11:23:37;98354.88;;;21.75;100.00
57114;BME280;42994;51.606;9.988;2023-09-18T11:26:07;98351.50;;;21.88;100.00
57114;BME280;42994;51.606;9.988;2023-09-18T11:28:34;98359.81;;;21.67;100.00
57114;BME280;42994;51.606;9.988;2023-09-18T11:31:02;98361.69;;;21.72;100.00
57114;BME280;42994;51.606;9.988;2023-09-18T11:33:31;98371.41;;;21.88;100.00
57114;BME280;42994;51.606;9.988;2023-09-18T11:36:04;98387.34;;;22.26;100.00
57114;BME280;42994;51.606;9.988;2023-09-18T11:38:32;98373.44;;;21.73;100.00
57114;BME280;42994;51.606;9.988;2023-09-18T11:43:42;98382.00;;;22.00;100.00
57114;BME280;42994;51.606;9.988;2023-09-18T11:46:10;98360.72;;;22.02;100.00
57114;BME280;42994;51.606;9.988;2023-09-18T11:48:41;98365.97;;;21.88;100.00
57114;BME280;42994;51.606;9.988;2023-09-18T11:51:09;98365.97;;;21.88;100.00
57114;BME280;42994;51.606;9.988;2023-09-18T11:53:38;98368.13;;;21.92;100.00
57114;BME280;42994;51.606;9.988;2023-09-18T11:56:10;98370.31;;;21.95;100.00
57114;BME280;42994;51.606;9.988;2023-09-18T11:58:45;98374.38;;;21.97;100.00
57114;BME280;42994;51.606;9.988;2023-09-18T12:01:11;98384.28;;;21.83;100.00
57114;BME280;42994;51.606;9.988;2023-09-18T12:03:41;98384.63;;;21.71;100.00
57114;BME280;42994;51.606;9.988;2023-09-18T12:06:09;98386.16;;;21.93;100.00
57114;BME280;42994;51.606;9.988;2023-09-18T12:08:38;98375.84;;;22.24;100.00
57114;BME280;42994;51.606;9.988;2023-09-18T12:11:06;98359.13;;;21.96;100.00
57114;BME280;42994;51.606;9.988;2023-09-18T12:13:32;98363.41;;;22.07;100.00
57114;BME280;42994;51.606;9.988;2023-09-18T12:16:00;98340.69;;;21.78;100.00
57114;BME280;42994;51.606;9.988;2023-09-18T12:18:27;98347.69;;;21.94;100.00
57114;BME280;42994;51.606;9.988;2023-09-18T12:20:54;98364.00;;;21.99;100.00
57114;BME280;42994;51.606;9.988;2023-09-18T12:23:25;98358.13;;;21.77;100.00
57114;BME280;42994;51.606;9.988;2023-09-18T12:25:58;98335.28;;;21.67;100.00
57114;BME280;42994;51.606;9.988;2023-09-18T12:28:25;98351.09;;;21.71;100.00
57114;BME280;42994;51.606;9.988;2023-09-18T12:30:54;98362.84;;;21.61;100.00
57114;BME280;42994;51.606;9.988;2023-09-18T12:33:21;98383.06;;;21.55;100.00
57114;BME280;42994;51.606;9.988;2023-09-18T12:35:49;98361.13;;;21.75;100.00
57114;BME280;42994;51.606;9.988;2023-09-18T12:38:17;98355.19;;;21.63;100.00
57114;BME280;42994;51.606;9.988;2023-09-18T12:40:46;98344.00;;;21.64;100.00
57114;BME280;42994;51.606;9.988;2023-09-18T12:43:13;98354.31;;;21.78;100.00
57114;BME280;42994;51.606;9.988;2023-09-18T12:45:42;98357.31;;;21.81;100.00
57114;BME280;42994;51.606;9.988;2023-09-18T12:48:09;98344.50;;;21.72;100.00
57114;BME280;42994;51.606;9.988;2023-09-18T12:50:37;98346.16;;;21.73;100.00
57114;BME280;42994;51.606;9.988;2023-09-18T12:53:08;98338.28;;;21.61;100.00
57114;BME280;42994;51.606;9.988;2023-09-18T12:55:35;98339.91;;;21.67;100.00
57114;BME280;42994;51.606;9.988;2023-09-18T12:58:03;98349.69;;;21.73;100.00